TAF KBAF
KBAF 072321Z 0800/0824 00000KT P6SM BKN100 FM080600 00000KT P6SM OVC100 FM081400 05003KT P6SM OVC060 FM081700 09004KT P6SM VCSH OVC050 FM082200 00000KT 5SM -SHSN OVC025=
METAR KBAF
WC KBAF
WS KBAF
WV KBAF